Latest Weather Observations for Charles Point

IDD60901

Issued at 10:51 am CST Tuesday 28 July 2015 (issued every 10 minutes, with the page automatically refreshed every 10 minutes)

About weather observations | Map of Darwin area stations | Latest observations for Darwin area | Other Formats
Station Details ID: 014031 Name: CHARLES POINT Lat: -12.39 Lon: 130.63 Height: 14.0 m
Data from the previous 72 hours. | See also: Recent months for locations in Northern Territory
Date/Time
CST
Tmp

°C
App
Tmp
°C
Dew
Point
°C
Rel
Hum
%
Delta-T

°C
Wind Press
QNH
hPa
Press
MSL
hPa
Rain
since
9 am
mm
Dir
 
Spd
km/h
Gust
km/h
Spd
kts
Gust
kts
28/10:30am 26.8 23.4 7.8 30 10.2 SE 15 26 8 14 1018.5 1018.4 0.0
28/10:00am 25.7 22.3 7.8 32 9.5 SE 15 30 8 16 1018.6 1018.5 0.0
28/09:30am 24.9 21.7 8.4 35 8.8 SE 15 26 8 14 1018.5 1018.4 0.0
28/09:00am 24.3 21.1 8.3 36 8.5 SE 15 28 8 15 1018.3 1018.2 0.0
28/08:30am 23.5 20.4 8.8 39 7.9 SE 15 26 8 14 1018.3 1018.2 0.0
28/08:00am 23.0 20.2 8.7 40 7.6 SE 13 30 7 16 1017.9 1017.8 0.0
28/07:30am 22.5 19.8 9.0 42 7.2 SE 13 22 7 12 1017.8 1017.7 0.0
28/07:00am 22.4 20.3 9.9 45 6.8 SSE 11 20 6 11 1017.7 1017.6 0.0
28/06:30am 22.8 21.1 9.9 44 7.0 SE 9 19 5 10 1017.3 1017.2 0.0
28/06:00am 23.1 21.1 10.2 44 7.1 SE 11 19 6 10 1017.0 1016.9 0.0
28/05:30am 23.3 21.5 10.7 45 7.0 SE 11 19 6 10 1016.9 1016.8 0.0
28/05:00am 23.2 22.1 11.9 49 6.4 SE 9 17 5 9 1016.8 1016.7 0.0
28/04:30am 22.9 22.7 14.7 60 4.8 SE 9 17 5 9 1016.7 1016.6 0.0
28/04:00am 22.7 23.5 17.2 71 3.4 SSE 9 13 5 7 1016.6 1016.5 0.0
28/03:30am 22.6 24.3 18.4 77 2.6 SSE 7 13 4 7 1016.6 1016.5 0.0
28/03:00am 22.9 24.4 18.9 78 2.5 S 9 19 5 10 1016.5 1016.4 0.0
28/02:30am 23.5 25.1 19.2 77 2.7 S 9 13 5 7 1016.7 1016.6 0.0
28/02:00am 21.9 24.1 19.1 84 1.8 S 6 6 3 3 1016.7 1016.6 0.0
28/01:30am 22.3 24.5 19.1 82 2.0 S 6 7 3 4 1016.7 1016.6 0.0
28/01:00am 22.6 24.6 19.2 81 2.2 S 7 7 4 4 1016.9 1016.8 0.0
28/12:30am 22.9 24.9 18.7 77 2.6 SSE 6 7 3 4 1016.9 1016.8 0.0
28/12:00am 23.7 25.5 18.8 74 3.1 S 7 9 4 5 1017.1 1017.0 0.0
 
Date/Time
CST
Tmp

°C
App
Tmp
°C
Dew
Point
°C
Rel
Hum
%
Delta-T

°C
Wind Press
QNH
hPa
Press
MSL
hPa
Rain
since
9 am
mm
Dir
 
Spd
km/h
Gust
km/h
Spd
kts
Gust
kts
27/11:30pm 24.1 26.1 18.7 72 3.4 SSE 6 9 3 5 1017.0 1016.9 0.0
27/11:00pm 24.4 26.5 19.0 72 3.4 SSE 6 9 3 5 1016.9 1016.8 0.0
27/10:30pm 25.3 27.6 19.4 70 3.8 ESE 6 7 3 4 1016.7 1016.6 0.0
27/10:00pm 25.6 28.0 19.7 70 3.8 ESE 6 7 3 4 1016.6 1016.5 0.0
27/09:30pm 25.9 28.2 19.5 68 4.1 ESE 6 9 3 5 1016.5 1016.4 0.0
27/09:00pm 26.2 28.7 19.8 68 4.1 ESE 6 7 3 4 1016.1 1016.0 0.0
27/08:30pm 26.5 29.0 19.9 67 4.3 E 6 9 3 5 1016.0 1015.9 0.0
27/08:00pm 26.7 29.3 20.1 67 4.3 E 6 9 3 5 1015.6 1015.5 0.0
27/07:30pm 27.0 29.5 19.9 65 4.6 E 6 11 3 6 1015.3 1015.2 0.0
27/07:00pm 26.8 29.3 19.9 66 4.5 E 6 7 3 4 1014.9 1014.8 0.0
27/06:30pm 27.3 29.9 20.1 64 4.7 E 6 9 3 5 1014.5 1014.4 0.0
27/06:00pm 27.7 30.3 20.0 63 5.0 ESE 6 9 3 5 1014.3 1014.2 0.0
27/05:30pm 28.3 31.0 20.3 62 5.3 ENE 6 11 3 6 1014.1 1014.0 0.0
27/05:00pm 28.1 30.4 20.6 63 4.9 NE 9 13 5 7 1013.9 1013.8 0.0
27/04:30pm 28.4 30.9 21.7 67 4.5 NNE 11 15 6 8 1013.9 1013.8 0.0
27/04:00pm 28.0 30.2 21.8 69 4.2 NNE 13 19 7 10 1014.0 1013.9 0.0
27/03:30pm 28.0 29.2 21.5 67 4.3 N 17 20 9 11 1014.2 1014.1 0.0
27/03:00pm 28.1 30.0 22.1 70 4.0 N 15 17 8 9 1014.4 1014.3 0.0
27/02:30pm 27.6 28.8 22.5 74 3.4 N 20 24 11 13 1014.6 1014.5 0.0
27/02:00pm 27.7 28.1 22.4 73 3.6 N 24 28 13 15 1014.7 1014.6 0.0
27/01:30pm 28.9 31.9 22.6 69 4.3 N 11 15 6 8 1015.1 1015.0 0.0
27/01:00pm 30.7 32.7 20.0 52 7.1 NE 9 15 5 8 1015.4 1015.3 0.0
27/12:30pm 31.7 32.6 19.3 47 8.1 E 13 24 7 13 1016.0 1015.9 0.0
27/12:00pm 31.1 31.8 18.8 48 8.0 ESE 13 26 7 14 1016.8 1016.7 0.0
27/11:30am 29.8 32.9 21.5 61 5.6 ENE 7 13 4 7 1017.5 1017.4 0.0
27/11:00am 30.3 32.0 19.3 51 7.2 S 9 19 5 10 1017.7 1017.6 0.0
27/10:30am 29.2 31.2 19.2 54 6.5 S 7 15 4 8 1018.0 1017.9 0.0
27/10:00am 27.5 29.0 18.8 59 5.6 S 9 15 5 8 1017.9 1017.8 0.0
27/09:30am 26.3 27.9 18.2 61 5.1 S 7 13 4 7 1018.2 1018.1 0.0
27/09:00am 25.7 26.8 17.9 62 4.9 S 9 13 5 7 1018.2 1018.1 0.0
27/08:30am 25.0 26.0 17.7 64 4.6 S 9 15 5 8 1018.0 1017.9 0.0
27/08:00am 24.3 25.7 17.8 67 4.1 S 7 13 4 7 1017.5 1017.4 0.0
27/07:30am 23.8 25.4 18.2 71 3.5 S 7 9 4 5 1017.1 1017.0 0.0
27/07:00am 23.8 26.0 19.1 75 3.0 S 6 9 3 5 1016.8 1016.7 0.0
27/06:30am 23.9 26.1 19.6 77 2.8 S 7 9 4 5 1016.7 1016.6 0.0
27/06:00am 24.0 26.3 19.9 78 2.6 S 7 9 4 5 1016.6 1016.5 0.0
27/05:30am 24.1 26.7 20.4 80 2.4 S 7 9 4 5 1016.3 1016.2 0.0
27/05:00am 24.2 27.1 20.7 81 2.3 S 6 11 3 6 1016.5 1016.4 0.0
27/04:30am 24.1 27.2 21.4 85 1.8 S 7 11 4 6 1016.6 1016.5 0.0
27/04:00am 23.9 27.1 21.2 85 1.8 SSE 6 9 3 5 1016.6 1016.5 0.0
27/03:30am 23.9 27.1 21.2 85 1.8 SSE 6 7 3 4 1016.7 1016.6 0.0
27/03:00am 24.1 27.4 21.4 85 1.8 SSE 6 7 3 4 1016.8 1016.7 0.0
27/02:30am 24.1 27.3 21.6 86 1.7 S 7 9 4 5 1016.9 1016.8 0.0
27/02:00am 23.9 27.3 21.6 87 1.5 S 6 7 3 4 1017.1 1017.0 0.0
27/01:30am 24.0 28.1 21.5 86 1.6 SSE 2 4 1 2 1017.5 1017.4 0.0
27/01:00am 24.1 27.9 21.6 86 1.7 SSE 4 6 2 3 1017.6 1017.5 0.0
27/12:30am 24.4 28.6 21.7 85 1.8 S 2 6 1 3 1017.6 1017.5 0.0
27/12:00am 24.9 28.9 22.0 84 1.9 SW 4 6 2 3 1017.5 1017.4 0.0
 
Date/Time
CST
Tmp

°C
App
Tmp
°C
Dew
Point
°C
Rel
Hum
%
Delta-T

°C
Wind Press
QNH
hPa
Press
MSL
hPa
Rain
since
9 am
mm
Dir
 
Spd
km/h
Gust
km/h
Spd
kts
Gust
kts
26/11:30pm 24.9 28.4 21.8 83 2.1 SSW 6 9 3 5 1017.6 1017.5 0.0
26/11:00pm 24.9 28.4 21.8 83 2.1 S 6 7 3 4 1017.5 1017.4 0.0
26/10:30pm 24.9 28.5 22.0 84 1.9 SSW 6 7 3 4 1017.4 1017.3 0.0
26/10:00pm 24.8 28.1 21.5 82 2.2 SSW 6 7 3 4 1017.2 1017.1 0.0
26/09:30pm 25.0 28.5 21.1 79 2.6 SW 4 7 2 4 1017.2 1017.1 0.0
26/09:00pm 25.0 27.9 20.7 77 2.8 SSW 6 7 3 4 1016.9 1016.8 0.0
26/08:30pm 25.0 27.9 20.7 77 2.8 SSW 6 7 3 4 1016.5 1016.4 0.0
26/08:00pm 25.3 28.3 20.8 76 3.0 SSW 6 7 3 4 1016.3 1016.2 0.0
26/07:30pm 25.5 28.8 20.7 75 3.1 SSW 4 4 2 2 1015.8 1015.7 0.0
26/07:00pm 26.1 29.2 21.1 74 3.3 S 6 7 3 4 1015.5 1015.4 0.0
26/06:30pm 27.3 30.8 21.1 69 4.1 NE 4 6 2 3 1015.1 1015.0 0.0
26/06:00pm 28.0 31.5 21.1 66 4.6 NNE 4 6 2 3 1014.8 1014.7 0.0
26/05:30pm 28.0 30.5 21.1 66 4.6 NNE 9 13 5 7 1014.5 1014.4 0.0
26/05:00pm 28.5 31.7 21.3 65 4.8 NNW 6 9 3 5 1014.5 1014.4 0.0
26/04:30pm 28.3 32.2 23.0 73 3.6 NW 7 11 4 6 1014.3 1014.2 0.0
26/04:00pm 28.7 32.2 22.9 71 4.0 NW 9 13 5 7 1014.2 1014.1 0.0
26/03:30pm 29.3 33.0 22.5 67 4.6 NW 7 13 4 7 1014.3 1014.2 0.0
26/03:00pm 28.9 32.5 23.1 71 4.0 NW 9 13 5 7 1014.4 1014.3 0.0
26/02:30pm 28.9 32.4 22.9 70 4.1 NW 9 15 5 8 1014.9 1014.8 0.0
26/02:00pm 28.8 32.3 22.1 67 4.5 NW 7 11 4 6 1014.9 1014.8 0.0
26/01:30pm 28.2 30.6 21.5 67 4.5 N 11 13 6 7 1015.2 1015.1 0.0
26/01:00pm 28.6 31.8 21.6 66 4.7 N 7 9 4 5 1015.7 1015.6 0.0
26/12:30pm 27.8 31.0 21.6 69 4.1 NNE 7 9 4 5 1016.2 1016.1 0.0
26/12:00pm 27.6 30.9 21.4 69 4.1 NNE 6 9 3 5 1016.7 1016.6 0.0
26/11:30am 27.5 30.8 21.5 70 4.0 NNE 6 7 3 4 1017.1 1017.0 0.0
26/11:00am 28.2 31.5 21.5 67 4.5 NNE 6 6 3 3 1017.4 1017.3 0.0
26/10:30am 26.9 30.5 21.2 71 3.8 NE 4 6 2 3 1017.5 1017.4 0.0
26/10:00am 26.9 30.2 21.4 72 3.7 ENE 6 7 3 4 1017.6 1017.5 0.0
26/09:30am 26.5 29.9 21.0 72 3.6 E 4 6 2 3 1017.6 1017.5 0.0
26/09:00am 25.9 30.3 21.3 76 3.0 CALM 0 4 0 2 1017.6 1017.5 0.0
26/08:30am 24.7 29.6 22.4 87 1.5 CALM 0 2 0 1 1017.6 1017.5 0.0
26/08:00am 22.5 26.0 21.1 92 0.9 S 4 4 2 2 1017.3 1017.2 0.0
26/07:30am 21.8 25.0 20.6 93 0.8 SSE 4 6 2 3 1017.0 1016.9 0.0
26/07:00am 21.9 25.1 20.5 92 0.9 SSE 4 4 2 2 1016.8 1016.7 0.0
26/06:30am 22.2 25.5 20.7 91 1.0 SSE 4 6 2 3 1016.5 1016.4 0.0
26/06:00am 22.6 26.0 20.9 90 1.1 SSE 4 6 2 3 1016.2 1016.1 0.0
26/05:30am 23.0 26.4 20.9 88 1.4 SSE 4 6 2 3 1016.2 1016.1 0.0
26/05:00am 23.6 27.3 21.5 88 1.4 ESE 4 6 2 3 1016.2 1016.1 0.0
26/04:30am 23.2 26.2 20.9 87 1.5 ESE 6 7 3 4 1016.1 1016.0 0.0
26/04:00am 22.9 26.5 20.6 87 1.5 ESE 2 4 1 2 1016.0 1015.9 0.0
26/03:30am 22.1 25.1 20.0 88 1.3 ESE 4 4 2 2 1015.9 1015.8 0.0
26/03:00am 22.2 25.4 20.5 90 1.1 SE 4 6 2 3 1016.1 1016.0 0.0
26/02:30am 22.1 25.7 20.6 91 1.0 S 2 4 1 2 1016.4 1016.3 0.0
26/02:00am 22.0 24.8 20.5 91 1.0 S 6 7 3 4 1016.5 1016.4 0.0
26/01:30am 22.0 24.8 20.5 91 1.0 S 6 6 3 3 1016.6 1016.5 0.0
26/01:00am 22.4 26.4 20.5 89 1.2 CALM 0 0 0 0 1016.8 1016.7 0.0
26/12:30am 22.8 26.9 20.7 88 1.4 CALM 0 0 0 0 1017.0 1016.9 0.0
26/12:00am 23.4 27.3 21.1 87 1.5 SSW 2 6 1 3 1016.9 1016.8 0.0
 
Date/Time
CST
Tmp

°C
App
Tmp
°C
Dew
Point
°C
Rel
Hum
%
Delta-T

°C
Wind Press
QNH
hPa
Press
MSL
hPa
Rain
since
9 am
mm
Dir
 
Spd
km/h
Gust
km/h
Spd
kts
Gust
kts
25/11:30pm 23.7 27.0 21.4 87 1.5 SW 6 7 3 4 1016.9 1016.8 0.0
25/11:00pm 24.1 27.6 21.8 87 1.5 SSW 6 11 3 6 1017.0 1016.9 0.0
25/10:30pm 24.3 27.7 22.0 87 1.5 SSW 7 13 4 7 1016.8 1016.7 0.0
25/10:00pm 24.4 27.6 22.3 88 1.4 SSW 9 13 5 7 1016.5 1016.4 0.0
25/09:30pm 24.4 27.5 22.1 87 1.5 SSW 9 15 5 8 1016.2 1016.1 0.0
25/09:00pm 24.3 27.2 21.8 86 1.7 SSW 9 13 5 7 1015.8 1015.7 0.0
25/08:30pm 24.3 27.6 21.8 86 1.7 SSW 7 9 4 5 1015.7 1015.6 0.0
25/08:00pm 24.6 27.9 21.9 85 1.8 SSW 7 9 4 5 1015.4 1015.3 0.0
25/07:30pm 24.8 28.2 21.7 83 2.1 SSW 6 9 3 5 1015.0 1014.9 0.0
25/07:00pm 25.1 28.5 21.6 81 2.3 SW 6 9 3 5 1014.7 1014.6 0.0
25/06:30pm 25.8 29.0 21.2 76 3.0 WSW 6 11 3 6 1014.1 1014.0 0.0
25/06:00pm 26.9 30.2 21.4 72 3.7 WSW 6 9 3 5 1013.6 1013.5 0.0
25/05:30pm 27.3 30.6 21.8 72 3.7 W 7 15 4 8 1013.4 1013.3 0.0
25/05:00pm 27.9 30.5 21.9 70 4.0 WNW 11 17 6 9 1013.2 1013.1 0.0
25/04:30pm 28.0 30.6 22.0 70 4.0 NW 11 15 6 8 1013.2 1013.1 0.0
25/04:00pm 28.1 30.7 21.9 69 4.2 NW 11 15 6 8 1013.0 1012.9 0.0
25/03:30pm 28.5 31.1 22.0 68 4.4 NW 11 15 6 8 1013.1 1013.0 0.0
25/03:00pm 28.6 30.8 21.9 67 4.5 NW 13 17 7 9 1013.5 1013.4 0.0
25/02:30pm 28.3 30.5 21.8 68 4.4 NW 13 17 7 9 1013.9 1013.8 0.0
25/02:00pm 28.8 31.9 22.1 67 4.5 NW 9 13 5 7 1014.3 1014.2 0.0
25/01:30pm 27.9 31.4 22.2 71 3.8 NW 7 9 4 5 1014.8 1014.7 0.0
25/01:00pm 27.6 30.0 21.6 70 4.0 NNE 11 13 6 7 1015.4 1015.3 0.0
25/12:30pm 27.3 29.8 21.1 69 4.1 N 9 11 5 6 1015.8 1015.7 0.0
25/12:00pm 27.6 30.5 20.7 66 4.5 NNE 6 9 3 5 1016.3 1016.2 0.0
25/11:30am 27.9 30.8 21.0 66 4.6 NE 7 11 4 6 1016.8 1016.7 0.0
25/11:00am 27.7 31.0 21.5 69 4.1 ENE 6 9 3 5 1017.3 1017.2 0.0

Latest Capital City Observations: Canberra | Sydney | Melbourne | Brisbane | Adelaide | Perth | Hobart | Darwin

Other Formats:

Comma delimited format used in spreadsheet applications
http://www.bom.gov.au/fwo/IDD60901/IDD60901.99510.axf

JavaScript Object Notation format (JSON) in row-major order
http://www.bom.gov.au/fwo/IDD60901/IDD60901.99510.json